Time;durP1;ratioP1;P1;durP2;ratioP2;P2;SDS_P1;SDS_P2;PMS_P1;PMS_P2;Temp;Humidity;BMP_temperature;BMP_pressure;BME280_temperature;BME280_humidity;BME280_pressure;Samples;Min_cycle;Max_cycle;Signal;HPM_P1;HPM_P2
2021/06/08 00:00:50;;;;;;;14.32;12.82;;;19.60;99.90;;;;;;5175452;27;20073;-85
2021/06/08 00:03:16;;;;;;;17.00;13.30;;;19.70;99.90;;;;;;5141386;27;20047;-81
2021/06/08 00:05:42;;;;;;;16.60;12.43;;;19.70;99.90;;;;;;5141628;27;20023;-83
2021/06/08 00:08:08;;;;;;;14.60;13.10;;;19.70;99.90;;;;;;5140287;27;20019;-80
2021/06/08 00:10:35;;;;;;;16.77;13.15;;;19.80;99.90;;;;;;5140892;27;20023;-80
2021/06/08 00:13:01;;;;;;;18.77;14.15;;;19.80;99.90;;;;;;5140742;27;20034;-79
2021/06/08 00:15:27;;;;;;;15.85;13.52;;;19.70;99.90;;;;;;5139511;27;20027;-79
2021/06/08 00:17:53;;;;;;;15.10;13.45;;;19.50;99.90;;;;;;5140602;27;20019;-79
2021/06/08 00:20:19;;;;;;;15.93;13.27;;;19.60;99.90;;;;;;5142664;27;20456;-85
2021/06/08 00:22:45;;;;;;;17.52;14.30;;;19.70;99.90;;;;;;5139892;27;20025;-80
2021/06/08 00:25:12;;;;;;;15.98;14.15;;;19.60;99.90;;;;;;5140665;27;20102;-80
2021/06/08 00:27:38;;;;;;;15.00;13.52;;;19.50;99.90;;;;;;5141258;27;20020;-84
2021/06/08 00:30:04;;;;;;;17.08;13.57;;;19.50;99.90;;;;;;5140342;27;20019;-80
2021/06/08 00:32:31;;;;;;;15.95;13.93;;;19.30;99.90;;;;;;5140830;27;20037;-85
2021/06/08 00:34:57;;;;;;;14.15;12.65;;;19.50;99.90;;;;;;5142320;27;20024;-84
2021/06/08 00:37:22;;;;;;;15.88;13.50;;;19.50;99.90;;;;;;5143318;27;20026;-80
2021/06/08 00:39:48;;;;;;;14.73;12.65;;;19.60;99.90;;;;;;5141638;27;20026;-81
2021/06/08 00:42:14;;;;;;;16.60;13.68;;;19.70;99.90;;;;;;5141153;27;20058;-80
2021/06/08 00:44:40;;;;;;;16.10;13.45;;;19.50;99.90;;;;;;5140348;27;20023;-81
2021/06/08 00:47:07;;;;;;;15.75;13.95;;;19.60;99.90;;;;;;5140409;27;20369;-79
2021/06/08 00:49:33;;;;;;;17.27;14.00;;;19.40;99.90;;;;;;5143260;27;20376;-80
2021/06/08 00:52:01;;;;;;;16.27;14.43;;;19.50;99.90;;;;;;5176424;27;20106;-80
2021/06/08 00:54:26;;;;;;;15.32;13.63;;;19.40;99.90;;;;;;5174273;27;20031;-80
2021/06/08 00:56:52;;;;;;;17.17;14.45;;;19.40;99.90;;;;;;5141734;27;20012;-84
2021/06/08 00:59:18;;;;;;;18.48;14.25;;;19.20;99.90;;;;;;5141795;27;20019;-84
2021/06/08 01:01:44;;;;;;;15.07;13.35;;;19.40;99.90;;;;;;5138819;27;20094;-82
2021/06/08 01:04:11;;;;;;;14.50;12.95;;;19.40;99.90;;;;;;5140067;27;20096;-82
2021/06/08 01:06:40;;;;;;;15.93;13.57;;;19.40;99.90;;;;;;5140196;27;20020;-83
2021/06/08 01:09:07;;;;;;;15.98;14.13;;;19.40;99.90;;;;;;5141967;27;20079;-79
2021/06/08 01:11:34;;;;;;;16.48;13.70;;;19.40;99.90;;;;;;5142860;27;20042;-82
2021/06/08 01:14:00;;;;;;;16.38;14.38;;;19.40;99.90;;;;;;5143111;27;20381;-78
2021/06/08 01:16:29;;;;;;;17.55;14.27;;;19.40;99.90;;;;;;5141893;27;20020;-80
2021/06/08 01:18:55;;;;;;;16.83;14.40;;;19.40;99.90;;;;;;5143053;27;20030;-81
2021/06/08 01:21:21;;;;;;;18.88;15.20;;;19.30;99.90;;;;;;5140057;27;20114;-81
2021/06/08 01:23:49;;;;;;;15.80;14.18;;;19.40;99.90;;;;;;5141002;27;20011;-81
2021/06/08 01:26:16;;;;;;;16.67;14.88;;;19.30;99.90;;;;;;5142817;27;20429;-80
2021/06/08 01:28:44;;;;;;;16.35;14.38;;;19.10;99.90;;;;;;5140464;27;20030;-79
2021/06/08 01:31:14;;;;;;;16.27;14.45;;;19.20;99.90;;;;;;5142014;27;20026;-80
2021/06/08 01:33:42;;;;;;;17.70;14.93;;;19.30;99.90;;;;;;5139498;27;20031;-79
2021/06/08 01:36:11;;;;;;;19.08;15.80;;;19.10;99.90;;;;;;5140344;27;20091;-84
2021/06/08 01:38:38;;;;;;;16.05;14.50;;;19.10;99.90;;;;;;5140041;27;20015;-83
2021/06/08 01:41:05;;;;;;;16.65;14.85;;;19.10;99.90;;;;;;5142034;27;20015;-84
2021/06/08 01:43:31;;;;;;;18.25;14.43;;;19.20;99.90;;;;;;5140958;27;20092;-81
2021/06/08 01:45:57;;;;;;;16.98;14.93;;;19.20;99.90;;;;;;5141716;27;20529;-81
2021/06/08 01:48:23;;;;;;;17.55;15.05;;;19.20;99.90;;;;;;5175540;27;20011;-80
2021/06/08 01:50:50;;;;;;;17.98;15.50;;;19.20;99.90;;;;;;5139993;27;20030;-83
2021/06/08 01:53:45;;;;;;;21.75;15.15;;;19.00;99.90;;;;;;5140256;27;20453;-84
2021/06/08 01:56:14;;;;;;;17.55;14.88;;;19.10;99.90;;;;;;5133543;27;20480;-82
2021/06/08 01:58:57;;;;;;;17.83;15.93;;;18.90;99.90;;;;;;5139437;27;20023;-79
2021/06/08 02:01:39;;;;;;;17.27;15.10;;;18.90;99.90;;;;;;5140993;27;20026;-83
2021/06/08 02:04:52;;;;;;;17.25;15.63;;;19.00;99.90;;;;;;5173706;27;20043;-84
2021/06/08 02:07:25;;;;;;;17.17;15.50;;;19.00;99.90;;;;;;5139555;27;20027;-80
2021/06/08 02:10:16;;;;;;;17.48;15.68;;;18.90;99.90;;;;;;5141590;27;20076;-82
2021/06/08 02:12:51;;;;;;;16.88;15.13;;;18.90;99.90;;;;;;5142247;27;20030;-84
2021/06/08 02:15:18;;;;;;;18.90;14.60;;;18.90;99.90;;;;;;5141775;27;20125;-82
2021/06/08 02:17:51;;;;;;;17.23;14.90;;;18.90;99.90;;;;;;5138220;27;20065;-79
2021/06/08 02:20:26;;;;;;;20.88;15.70;;;18.90;99.90;;;;;;5137496;28;20099;-83
2021/06/08 02:22:57;;;;;;;17.05;14.70;;;18.80;99.90;;;;;;5141944;28;20075;-80
2021/06/08 02:25:25;;;;;;;18.00;16.02;;;18.80;99.90;;;;;;5140001;27;20168;-79
2021/06/08 02:27:53;;;;;;;17.98;16.05;;;18.70;99.90;;;;;;5140237;27;20023;-80
2021/06/08 02:30:20;;;;;;;20.45;16.95;;;18.60;99.90;;;;;;5138592;28;20422;-80
2021/06/08 02:32:47;;;;;;;21.05;16.20;;;18.60;99.90;;;;;;5140747;27;20059;-79
2021/06/08 02:35:14;;;;;;;19.63;16.42;;;18.70;99.90;;;;;;5141535;27;20031;-83
2021/06/08 02:37:40;;;;;;;18.65;15.77;;;18.60;99.90;;;;;;5139273;28;20088;-81
2021/06/08 02:40:08;;;;;;;17.58;15.77;;;18.70;99.90;;;;;;5138424;27;20026;-79
2021/06/08 02:42:35;;;;;;;18.45;15.30;;;18.60;99.90;;;;;;5141130;27;20027;-79
2021/06/08 02:45:03;;;;;;;20.38;15.95;;;18.60;99.90;;;;;;5141447;27;20037;-79
2021/06/08 02:47:31;;;;;;;17.08;15.23;;;18.60;99.90;;;;;;5140972;27;20106;-83
2021/06/08 02:49:59;;;;;;;19.67;16.27;;;18.60;99.90;;;;;;5143108;27;20015;-79
2021/06/08 02:52:27;;;;;;;18.33;16.40;;;18.50;99.90;;;;;;5141275;27;20019;-79
2021/06/08 02:54:54;;;;;;;15.98;14.27;;;18.50;99.90;;;;;;5140732;27;20022;-83
2021/06/08 02:57:22;;;;;;;22.40;16.23;;;18.50;99.90;;;;;;5139333;27;20039;-80
2021/06/08 02:59:50;;;;;;;20.83;15.55;;;18.40;99.90;;;;;;5137922;28;20019;-84
2021/06/08 03:02:18;;;;;;;19.23;15.80;;;18.40;99.90;;;;;;5139287;27;20026;-84
2021/06/08 03:05:09;;;;;;;20.30;16.70;;;18.40;99.90;;;;;;5140260;27;20493;-82
2021/06/08 03:07:39;;;;;;;24.60;16.45;;;18.20;99.90;;;;;;5141708;27;20064;-80
2021/06/08 03:10:11;;;;;;;17.90;15.88;;;18.20;99.90;;;;;;5139183;28;20049;-84
2021/06/08 03:12:52;;;;;;;18.92;15.82;;;18.20;99.90;;;;;;5141624;27;20003;-82
2021/06/08 03:15:20;;;;;;;18.95;16.52;;;18.30;99.90;;;;;;5139740;27;20426;-81
2021/06/08 03:17:46;;;;;;;18.65;15.57;;;18.30;99.90;;;;;;5139119;27;20023;-82
2021/06/08 03:20:36;;;;;;;17.90;15.73;;;18.40;99.90;;;;;;5141591;27;20023;-79
2021/06/08 03:23:06;;;;;;;15.60;13.73;;;18.60;99.90;;;;;;5139833;27;20027;-81
2021/06/08 03:25:34;;;;;;;20.13;16.40;;;18.70;99.90;;;;;;5140344;27;20106;-82
2021/06/08 03:28:01;;;;;;;20.70;16.58;;;18.60;99.90;;;;;;5138320;28;20079;-80
2021/06/08 03:30:29;;;;;;;20.75;17.38;;;18.60;99.90;;;;;;5142717;27;20493;-80
2021/06/08 03:32:56;;;;;;;20.88;16.95;;;18.50;99.90;;;;;;5142993;27;20019;-80
2021/06/08 03:35:25;;;;;;;22.10;17.60;;;18.40;99.90;;;;;;5141407;27;20026;-80
2021/06/08 03:37:53;;;;;;;19.02;16.23;;;18.40;99.90;;;;;;5144153;27;20023;-81
2021/06/08 03:40:21;;;;;;;20.88;17.33;;;18.50;99.90;;;;;;5141797;27;20022;-80
2021/06/08 03:42:48;;;;;;;20.17;17.63;;;18.50;99.90;;;;;;5141169;27;20055;-83
2021/06/08 03:45:15;;;;;;;18.65;16.65;;;18.40;99.90;;;;;;5141228;27;20026;-81
2021/06/08 03:47:43;;;;;;;22.23;19.02;;;18.30;99.90;;;;;;5141779;27;20031;-82
2021/06/08 03:50:11;;;;;;;19.83;17.73;;;18.20;99.90;;;;;;5142269;27;20110;-84
2021/06/08 03:52:39;;;;;;;21.52;17.15;;;18.30;99.90;;;;;;5141531;27;20075;-85
2021/06/08 03:55:06;;;;;;;19.02;16.67;;;18.30;99.90;;;;;;5141711;27;20031;-83
2021/06/08 03:57:38;;;;;;;20.42;16.80;;;18.10;99.90;;;;;;5143589;27;20023;-84
2021/06/08 04:00:08;;;;;;;17.83;15.40;;;18.30;99.90;;;;;;5142408;27;20469;-84
2021/06/08 04:02:38;;;;;;;20.02;15.55;;;18.40;99.90;;;;;;5140695;27;20054;-85
2021/06/08 04:05:09;;;;;;;19.10;16.83;;;18.60;99.90;;;;;;5140267;27;20026;-82
2021/06/08 04:07:39;;;;;;;17.45;15.45;;;18.50;99.90;;;;;;5142193;27;20019;-82
2021/06/08 04:10:07;;;;;;;17.73;15.82;;;18.60;99.90;;;;;;5140602;27;20034;-84
2021/06/08 04:12:34;;;;;;;20.05;15.82;;;18.60;99.90;;;;;;5140028;27;20004;-80
2021/06/08 04:15:02;;;;;;;18.23;15.40;;;18.70;99.90;;;;;;5141687;27;20073;-80
2021/06/08 04:17:28;;;;;;;20.80;15.10;;;18.80;99.90;;;;;;5142011;27;20027;-83
2021/06/08 04:19:54;;;;;;;18.45;15.88;;;18.80;99.90;;;;;;5176102;27;20019;-84
2021/06/08 04:22:33;;;;;;;16.02;14.13;;;18.80;99.90;;;;;;5142890;27;20067;-81
2021/06/08 04:25:00;;;;;;;19.10;15.23;;;18.90;99.90;;;;;;5142894;27;20011;-78
2021/06/08 04:27:29;;;;;;;17.58;15.13;;;18.90;99.90;;;;;;5143316;27;20019;-80
2021/06/08 04:29:56;;;;;;;19.92;15.63;;;19.00;99.90;;;;;;5143793;27;20026;-80
2021/06/08 04:32:23;;;;;;;19.23;15.10;;;18.90;99.90;;;;;;5145438;27;20020;-82
2021/06/08 04:34:52;;;;;;;20.83;14.60;;;19.10;99.90;;;;;;5143704;27;20031;-80
2021/06/08 04:37:20;;;;;;;18.42;14.27;;;19.20;99.90;;;;;;5144174;27;20029;-82
2021/06/08 04:39:46;;;;;;;17.15;14.40;;;19.30;99.90;;;;;;5141023;27;20069;-81
2021/06/08 04:42:15;;;;;;;16.40;14.63;;;19.20;99.90;;;;;;5141121;27;20031;-82
2021/06/08 04:44:43;;;;;;;17.67;14.88;;;19.40;99.90;;;;;;5141938;27;20388;-80
2021/06/08 04:47:13;;;;;;;16.33;14.10;;;19.30;99.90;;;;;;5142342;27;20027;-83
2021/06/08 04:49:39;;;;;;;16.05;14.05;;;19.30;99.90;;;;;;5143955;27;20050;-82
2021/06/08 04:52:06;;;;;;;19.67;14.07;;;19.40;99.90;;;;;;5142742;27;20045;-81
2021/06/08 04:54:33;;;;;;;19.08;14.63;;;19.40;99.90;;;;;;5143182;27;20023;-81
2021/06/08 04:57:01;;;;;;;16.92;14.15;;;19.50;99.90;;;;;;5143707;27;20000;-81
2021/06/08 04:59:35;;;;;;;15.90;13.95;;;19.40;99.90;;;;;;5143091;27;20023;-80
2021/06/08 05:02:12;;;;;;;15.02;13.50;;;19.50;99.90;;;;;;5143269;27;20417;-78
2021/06/08 05:04:40;;;;;;;14.77;13.32;;;19.60;99.90;;;;;;5146527;27;20038;-79
2021/06/08 05:07:09;;;;;;;16.10;13.23;;;19.70;99.90;;;;;;5141450;27;20030;-82
2021/06/08 05:09:40;;;;;;;15.10;13.02;;;19.90;99.90;;;;;;5139941;27;20011;-80
2021/06/08 05:12:10;;;;;;;17.40;13.13;;;20.10;99.90;;;;;;5139681;27;20200;-79
2021/06/08 05:14:43;;;;;;;16.08;12.70;;;20.00;99.90;;;;;;5140603;27;20046;-82
2021/06/08 05:17:11;;;;;;;14.90;12.75;;;20.10;99.90;;;;;;5142070;27;20469;-80
2021/06/08 05:19:38;;;;;;;17.17;12.27;;;20.00;99.90;;;;;;5142543;27;20047;-80
2021/06/08 05:22:05;;;;;;;15.07;12.98;;;20.20;99.90;;;;;;5140690;27;20015;-82
2021/06/08 05:24:31;;;;;;;15.70;12.90;;;20.20;99.90;;;;;;5140440;27;20019;-82
2021/06/08 05:26:58;;;;;;;14.35;12.85;;;20.20;99.90;;;;;;5142203;27;20019;-80
2021/06/08 05:29:24;;;;;;;16.92;12.85;;;20.30;99.90;;;;;;5142286;27;20003;-84
2021/06/08 05:31:55;;;;;;;13.77;12.35;;;20.30;99.90;;;;;;5141856;27;20034;-80
2021/06/08 05:34:21;;;;;;;14.38;11.70;;;20.20;99.90;;;;;;5142288;27;20031;-83
2021/06/08 05:36:47;;;;;;;14.90;12.15;;;20.50;99.90;;;;;;5138630;27;20437;-79
2021/06/08 05:39:13;;;;;;;14.07;11.55;;;20.50;99.90;;;;;;5140676;27;20028;-82
2021/06/08 05:41:40;;;;;;;13.65;12.25;;;20.70;99.90;;;;;;5140327;27;20011;-80
2021/06/08 05:44:09;;;;;;;13.48;12.13;;;20.70;99.90;;;;;;5140093;27;20015;-80
2021/06/08 05:46:37;;;;;;;14.63;11.57;;;20.80;99.90;;;;;;5139302;27;20034;-78
2021/06/08 05:49:05;;;;;;;12.85;11.50;;;20.80;99.90;;;;;;5138489;27;20034;-80
2021/06/08 05:51:37;;;;;;;15.63;11.73;;;21.00;99.90;;;;;;5138444;27;20016;-79
2021/06/08 05:54:05;;;;;;;14.90;12.27;;;21.00;99.90;;;;;;5138611;27;20023;-79
2021/06/08 05:56:33;;;;;;;15.75;11.43;;;21.00;99.90;;;;;;5175022;27;20032;-79
2021/06/08 05:58:59;;;;;;;13.85;11.38;;;21.10;99.90;;;;;;5139610;27;20026;-78
2021/06/08 06:01:27;;;;;;;13.73;11.70;;;21.30;99.90;;;;;;5138535;27;20023;-79
2021/06/08 06:03:53;;;;;;;13.38;11.90;;;21.40;99.90;;;;;;5138473;27;20384;-79
2021/06/08 06:06:19;;;;;;;13.57;10.95;;;21.30;99.90;;;;;;5137595;27;20023;-78
2021/06/08 06:08:46;;;;;;;14.70;11.23;;;21.30;99.90;;;;;;5137734;27;20023;-79
2021/06/08 06:11:16;;;;;;;14.80;11.45;;;21.40;99.90;;;;;;5137964;27;20023;-79
2021/06/08 06:13:57;;;;;;;14.43;10.85;;;21.50;99.90;;;;;;5136361;27;20418;-77
2021/06/08 06:16:24;;;;;;;15.90;12.02;;;21.60;99.90;;;;;;5141314;27;20043;-79
2021/06/08 06:18:50;;;;;;;13.90;11.50;;;21.50;99.90;;;;;;5139453;27;20507;-78
2021/06/08 06:21:17;;;;;;;12.25;10.90;;;21.80;99.90;;;;;;5140322;27;20110;-79
2021/06/08 06:23:44;;;;;;;14.88;10.82;;;22.00;99.90;;;;;;5141346;27;20473;-77
2021/06/08 06:26:11;;;;;;;18.50;11.68;;;21.90;99.90;;;;;;5141768;27;20070;-76
2021/06/08 06:28:39;;;;;;;16.23;11.45;;;22.10;99.90;;;;;;5140531;27;20015;-78
2021/06/08 06:31:09;;;;;;;16.55;10.63;;;22.20;99.90;;;;;;5135908;28;20022;-77
2021/06/08 06:33:35;;;;;;;17.63;12.35;;;22.40;99.90;;;;;;5139166;27;20023;-76
2021/06/08 06:36:03;;;;;;;14.70;11.48;;;22.30;99.90;;;;;;5137821;27;20472;-77
2021/06/08 06:38:30;;;;;;;14.93;11.75;;;22.30;99.90;;;;;;5139825;27;20028;-77
2021/06/08 06:41:00;;;;;;;12.15;10.85;;;22.20;99.90;;;;;;5171194;27;20052;-77
2021/06/08 06:43:27;;;;;;;14.05;10.75;;;22.30;99.90;;;;;;5139318;27;20030;-78
2021/06/08 06:45:54;;;;;;;30.73;11.48;;;22.60;99.90;;;;;;5139087;28;20044;-78
2021/06/08 06:48:20;;;;;;;13.60;10.30;;;22.60;99.90;;;;;;5137471;27;20027;-76
2021/06/08 06:51:41;;;;;;;13.30;11.10;;;22.90;99.90;;;;;;5135620;28;20050;-77
2021/06/08 06:54:09;;;;;;;15.82;10.57;;;23.10;99.90;;;;;;5135161;27;20483;-79
2021/06/08 06:56:36;;;;;;;15.80;10.60;;;23.20;99.90;;;;;;5137139;27;20106;-78
2021/06/08 06:59:05;;;;;;;14.73;9.98;;;23.30;99.90;;;;;;5136679;27;20043;-77
2021/06/08 07:01:30;;;;;;;13.05;9.88;;;23.30;99.90;;;;;;5134459;27;20019;-77
2021/06/08 07:03:58;;;;;;;15.98;10.68;;;23.50;99.90;;;;;;5135325;27;20054;-78
2021/06/08 07:06:30;;;;;;;15.52;10.70;;;23.30;99.90;;;;;;5140881;27;20031;-79
2021/06/08 07:08:57;;;;;;;12.80;9.88;;;23.50;99.90;;;;;;5143405;27;20020;-76
2021/06/08 07:11:24;;;;;;;13.05;10.27;;;23.80;99.90;;;;;;5142082;27;20420;-77
2021/06/08 07:13:51;;;;;;;13.77;9.15;;;24.00;99.90;;;;;;5138647;27;20019;-78
2021/06/08 07:16:18;;;;;;;12.70;9.50;;;24.20;99.90;;;;;;5140347;27;20422;-78
2021/06/08 07:18:47;;;;;;;12.07;10.10;;;24.40;99.90;;;;;;5137552;27;20023;-79
2021/06/08 07:21:18;;;;;;;12.38;9.63;;;24.20;99.80;;;;;;5140068;27;20041;-77
2021/06/08 07:23:47;;;;;;;10.73;8.30;;;24.20;99.60;;;;;;5143030;27;20023;-77
2021/06/08 07:26:16;;;;;;;10.90;8.35;;;24.70;99.00;;;;;;5143325;27;20023;-77
2021/06/08 07:28:43;;;;;;;11.90;8.38;;;24.60;97.60;;;;;;5141636;27;20345;-77
2021/06/08 07:31:13;;;;;;;15.98;9.30;;;24.80;97.40;;;;;;5144867;27;20015;-78
2021/06/08 07:33:44;;;;;;;13.52;8.65;;;24.90;97.80;;;;;;5141488;27;20019;-77
2021/06/08 07:36:20;;;;;;;42.40;12.27;;;24.80;97.00;;;;;;5143752;27;20015;-77
2021/06/08 07:38:52;;;;;;;14.13;10.02;;;24.90;98.00;;;;;;5142536;27;20027;-76
2021/06/08 07:41:29;;;;;;;10.80;7.90;;;25.00;97.00;;;;;;5140356;27;20007;-77
2021/06/08 07:44:01;;;;;;;13.38;8.30;;;25.30;97.00;;;;;;5145367;27;20510;-78
2021/06/08 07:46:29;;;;;;;12.00;8.10;;;25.60;96.60;;;;;;5143392;27;20015;-77
2021/06/08 07:48:58;;;;;;;9.88;7.60;;;25.50;95.60;;;;;;5142607;27;20089;-77
2021/06/08 07:51:29;;;;;;;12.63;7.07;;;25.90;94.90;;;;;;5144739;27;20024;-78
2021/06/08 07:53:57;;;;;;;10.13;7.97;;;25.80;93.80;;;;;;5144042;27;20156;-76
2021/06/08 07:56:23;;;;;;;12.13;7.63;;;26.10;94.90;;;;;;5141352;27;20026;-77
2021/06/08 07:58:50;;;;;;;8.38;5.63;;;26.40;93.70;;;;;;5140849;27;20026;-77
2021/06/08 08:01:20;;;;;;;8.45;5.78;;;26.70;94.20;;;;;;5141326;27;20015;-76
2021/06/08 08:03:50;;;;;;;20.85;6.20;;;27.00;92.60;;;;;;5141023;27;20497;-78
2021/06/08 08:06:18;;;;;;;7.63;5.13;;;27.00;92.20;;;;;;5144149;27;20377;-77
2021/06/08 08:08:47;;;;;;;7.07;4.97;;;26.80;89.90;;;;;;5144079;27;20034;-77
2021/06/08 08:11:16;;;;;;;7.93;6.25;;;27.00;90.80;;;;;;5143201;27;20128;-76
2021/06/08 08:13:45;;;;;;;7.70;5.50;;;26.90;91.30;;;;;;5142470;27;20094;-77
2021/06/08 08:16:13;;;;;;;6.85;5.47;;;27.40;90.70;;;;;;5142893;27;20016;-75
2021/06/08 08:18:41;;;;;;;9.02;5.68;;;27.30;90.10;;;;;;5140301;27;20015;-77
2021/06/08 08:21:10;;;;;;;7.63;4.82;;;27.40;91.20;;;;;;5140728;27;20046;-76
2021/06/08 08:23:37;;;;;;;7.82;5.18;;;27.60;88.80;;;;;;5141251;27;20007;-76
2021/06/08 08:26:06;;;;;;;8.52;5.13;;;27.30;87.20;;;;;;5141153;27;20024;-77
2021/06/08 08:28:36;;;;;;;6.93;4.80;;;;;;;;;;5141392;27;20441;-84
2021/06/08 08:31:05;;;;;;;11.00;5.95;;;27.60;88.00;;;;;;5137332;27;20031;-78
2021/06/08 08:33:32;;;;;;;7.50;4.50;;;27.80;88.40;;;;;;5138110;27;20059;-78
2021/06/08 08:36:00;;;;;;;9.27;4.47;;;27.90;88.70;;;;;;5141026;27;20031;-77
2021/06/08 08:38:26;;;;;;;6.32;3.80;;;28.00;85.20;;;;;;5142014;27;20027;-76
2021/06/08 08:40:52;;;;;;;5.05;3.78;;;28.50;87.10;;;;;;5142108;27;20028;-77
2021/06/08 08:43:20;;;;;;;6.30;4.32;;;28.90;83.40;;;;;;5141406;27;20023;-78
2021/06/08 08:45:47;;;;;;;5.22;3.85;;;28.80;79.00;;;;;;5141419;27;20029;-77
2021/06/08 08:48:14;;;;;;;5.90;4.00;;;28.90;79.10;;;;;;5141318;27;20032;-78
2021/06/08 08:50:40;;;;;;;5.45;4.10;;;29.20;82.80;;;;;;5141042;27;20384;-77
2021/06/08 08:53:06;;;;;;;6.15;4.30;;;29.30;82.70;;;;;;5136575;27;20022;-79
2021/06/08 08:55:35;;;;;;;5.35;3.75;;;29.30;80.00;;;;;;5139672;27;20027;-77
2021/06/08 08:58:04;;;;;;;8.93;4.50;;;29.20;79.20;;;;;;5141428;27;20015;-77
2021/06/08 09:00:31;;;;;;;6.53;3.58;;;29.10;74.90;;;;;;5139944;27;20028;-78
2021/06/08 09:03:04;;;;;;;5.90;3.92;;;29.20;78.60;;;;;;5140691;27;20063;-79
2021/06/08 09:05:35;;;;;;;6.70;4.05;;;29.70;79.50;;;;;;5143890;27;20026;-79
2021/06/08 09:08:02;;;;;;;8.50;5.25;;;29.70;76.30;;;;;;5143374;27;20054;-78
2021/06/08 09:10:30;;;;;;;11.07;4.63;;;29.40;73.70;;;;;;5141696;27;20023;-79
2021/06/08 09:12:56;;;;;;;6.55;4.68;;;29.80;78.40;;;;;;5142066;27;20019;-81
2021/06/08 09:15:22;;;;;;;6.75;4.60;;;29.70;74.50;;;;;;5142899;27;20031;-80
2021/06/08 09:17:52;;;;;;;7.03;3.63;;;29.80;76.20;;;;;;5139905;27;20037;-80
2021/06/08 09:20:18;;;;;;;5.18;3.22;;;30.00;76.50;;;;;;5140815;27;20023;-79
2021/06/08 09:22:52;;;;;;;7.22;3.13;;;30.30;75.90;;;;;;5140337;27;19995;-79
2021/06/08 09:25:36;;;;;;;8.18;3.72;;;30.50;76.80;;;;;;5142733;27;20050;-79
2021/06/08 09:28:24;;;;;;;8.18;3.50;;;30.50;72.00;;;;;;5141317;27;20425;-78
2021/06/08 09:31:01;;;;;;;4.95;3.60;;;29.90;73.30;;;;;;5141903;27;20537;-79
2021/06/08 09:33:31;;;;;;;5.32;3.60;;;29.80;73.50;;;;;;5141728;27;20053;-79
2021/06/08 09:36:06;;;;;;;3.97;3.40;;;29.90;74.40;;;;;;5140278;27;20076;-78
2021/06/08 09:38:42;;;;;;;6.63;3.20;;;30.10;72.90;;;;;;5139818;27;20023;-79
2021/06/08 09:41:44;;;;;;;5.90;3.60;;;30.30;71.70;;;;;;5141098;27;20023;-79
2021/06/08 09:44:16;;;;;;;10.82;3.88;;;30.60;75.70;;;;;;5141568;27;20060;-79
2021/06/08 09:46:47;;;;;;;5.05;3.40;;;30.30;73.80;;;;;;5140177;27;20019;-78
2021/06/08 09:49:18;;;;;;;6.80;3.63;;;30.00;70.20;;;;;;5140885;27;20022;-80
2021/06/08 09:51:57;;;;;;;4.05;3.20;;;30.20;72.10;;;;;;5140790;27;20545;-81
2021/06/08 09:54:50;;;;;;;4.38;3.10;;;30.50;72.40;;;;;;5140318;27;20026;-80
2021/06/08 09:57:26;;;;;;;8.07;3.42;;;30.90;71.20;;;;;;5142922;27;20087;-78
2021/06/08 09:59:55;;;;;;;5.03;3.10;;;31.30;71.30;;;;;;5140532;27;20023;-78
2021/06/08 10:02:48;;;;;;;6.75;3.83;;;31.60;70.10;;;;;;5136602;27;20488;-78
2021/06/08 10:05:31;;;;;;;8.00;3.45;;;31.70;69.80;;;;;;5135677;27;20027;-78
2021/06/08 10:08:00;;;;;;;7.15;3.65;;;31.40;65.00;;;;;;5140955;27;20099;-79
2021/06/08 10:10:44;;;;;;;5.47;3.10;;;31.40;70.30;;;;;;5139112;27;20047;-78
2021/06/08 10:13:12;;;;;;;4.30;3.20;;;31.80;71.20;;;;;;5142309;27;20026;-79
2021/06/08 10:15:53;;;;;;;6.65;3.20;;;31.90;68.60;;;;;;5139173;27;20027;-78
2021/06/08 10:18:19;;;;;;;7.30;3.13;;;32.20;68.40;;;;;;5141714;28;20027;-77
2021/06/08 10:21:00;;;;;;;5.40;3.15;;;32.30;65.60;;;;;;5138691;27;20027;-77
2021/06/08 10:23:28;;;;;;;4.50;2.67;;;32.40;64.90;;;;;;5141270;28;20099;-78
2021/06/08 10:25:56;;;;;;;6.00;2.90;;;32.40;66.30;;;;;;5143304;27;20003;-80
2021/06/08 10:28:23;;;;;;;5.35;3.10;;;32.50;65.10;;;;;;5142095;28;20031;-79
2021/06/08 10:30:50;;;;;;;4.90;2.78;;;32.60;63.30;;;;;;5141948;27;20035;-79
2021/06/08 10:33:16;;;;;;;6.47;2.95;;;32.30;63.90;;;;;;5139279;28;20073;-79
2021/06/08 10:35:44;;;;;;;4.15;3.10;;;32.60;62.20;;;;;;5140514;27;20502;-79
2021/06/08 10:38:11;;;;;;;5.80;2.85;;;32.60;63.70;;;;;;5141566;27;20023;-78
2021/06/08 10:40:40;;;;;;;6.97;2.83;;;32.90;61.40;;;;;;5145712;27;20102;-80
2021/06/08 10:43:13;;;;;;;12.07;3.20;;;32.90;65.70;;;;;;5145237;27;20015;-78
2021/06/08 10:45:40;;;;;;;5.82;2.83;;;32.80;65.60;;;;;;5145916;27;20023;-79
2021/06/08 10:48:26;;;;;;;9.05;2.90;;;32.80;64.90;;;;;;5144491;27;20056;-80
2021/06/08 10:51:12;;;;;;;5.60;2.60;;;32.80;60.60;;;;;;5144569;27;20046;-79
2021/06/08 10:53:42;;;;;;;3.42;2.60;;;32.30;62.00;;;;;;5143311;27;20031;-77
2021/06/08 10:56:21;;;;;;;5.53;2.80;;;32.40;61.70;;;;;;5142467;27;20042;-79
2021/06/08 10:58:54;;;;;;;5.43;2.60;;;32.60;62.10;;;;;;5144509;27;20019;-85
2021/06/08 11:01:42;;;;;;;3.70;2.67;;;32.70;61.70;;;;;;5145454;27;20544;-78
2021/06/08 11:04:28;;;;;;;5.38;2.63;;;31.80;60.20;;;;;;5146969;27;20150;-79
2021/06/08 11:07:03;;;;;;;8.88;2.50;;;31.80;62.00;;;;;;5145378;27;20385;-78
2021/06/08 11:09:32;;;;;;;5.15;2.70;;;31.80;58.80;;;;;;5144807;27;20023;-79
2021/06/08 11:12:23;;;;;;;4.07;2.53;;;32.00;61.00;;;;;;5144057;27;20023;-79
2021/06/08 11:14:59;;;;;;;6.28;3.15;;;32.20;62.30;;;;;;5141197;27;20122;-78
2021/06/08 11:17:30;;;;;;;4.82;3.15;;;32.40;63.40;;;;;;5143536;27;20023;-79
2021/06/08 11:20:13;;;;;;;4.88;2.70;;;31.50;63.10;;;;;;5148261;27;20027;-80
2021/06/08 11:22:39;;;;;;;5.28;3.00;;;31.50;64.30;;;;;;5144816;27;20080;-80
2021/06/08 11:25:26;;;;;;;3.60;2.83;;;31.40;62.30;;;;;;5147384;27;20012;-79
2021/06/08 11:28:10;;;;;;;6.50;3.15;;;31.10;64.30;;;;;;5147511;27;20015;-79
2021/06/08 11:30:57;;;;;;;7.50;3.20;;;30.50;65.00;;;;;;5148038;27;20481;-80
2021/06/08 11:33:28;;;;;;;3.50;2.72;;;30.50;65.90;;;;;;5145841;27;20118;-80
2021/06/08 11:35:54;;;;;;;5.97;3.03;;;31.10;65.80;;;;;;5146003;27;20008;-79
2021/06/08 11:38:23;;;;;;;3.22;2.50;;;31.80;65.60;;;;;;5147390;27;20023;-80
2021/06/08 11:40:52;;;;;;;6.00;2.60;;;32.30;64.50;;;;;;5148591;27;20035;-79
2021/06/08 11:43:17;;;;;;;3.85;2.67;;;32.50;56.30;;;;;;5146568;27;20022;-80
2021/06/08 11:46:00;;;;;;;6.15;2.72;;;32.90;57.50;;;;;;5144473;27;20027;-78
2021/06/08 11:48:36;;;;;;;6.22;2.40;;;33.30;57.80;;;;;;5146622;27;20023;-79
2021/06/08 11:51:33;;;;;;;9.52;2.50;;;33.60;57.60;;;;;;5146623;27;20137;-79
2021/06/08 11:54:25;;;;;;;4.65;2.47;;;33.60;55.90;;;;;;5146418;27;20031;-79
2021/06/08 11:57:06;;;;;;;5.13;2.50;;;33.90;55.20;;;;;;5148010;27;20164;-79
2021/06/08 11:59:56;;;;;;;7.55;2.20;;;34.30;54.00;;;;;;5148217;27;20520;-79
2021/06/08 12:02:46;;;;;;;4.93;2.50;;;34.30;54.80;;;;;;5144931;27;20457;-79
2021/06/08 12:05:20;;;;;;;4.45;2.55;;;34.60;55.00;;;;;;5147587;27;20038;-81
2021/06/08 12:08:03;;;;;;;4.07;2.50;;;34.10;54.10;;;;;;5145452;27;20353;-78
2021/06/08 12:10:40;;;;;;;5.27;2.43;;;33.50;54.50;;;;;;5145754;27;20342;-82
2021/06/08 12:13:07;;;;;;;4.55;2.50;;;33.30;53.80;;;;;;5143893;27;20059;-85
2021/06/08 12:15:40;;;;;;;6.72;2.38;;;33.80;54.30;;;;;;5146643;27;20025;-85
2021/06/08 12:18:25;;;;;;;6.22;4.28;;;33.50;55.20;;;;;;5143948;27;20118;-82
2021/06/08 12:20:52;;;;;;;4.82;2.60;;;33.60;55.10;;;;;;5143780;27;20483;-86
2021/06/08 12:23:34;;;;;;;7.10;3.80;;;33.70;54.30;;;;;;5144135;27;20011;-86
2021/06/08 12:26:11;;;;;;;4.72;2.60;;;33.80;51.20;;;;;;5146301;27;20024;-87
2021/06/08 12:28:43;;;;;;;5.22;2.72;;;34.10;55.70;;;;;;5145452;27;20019;-84
2021/06/08 12:31:14;;;;;;;4.10;2.83;;;34.30;53.50;;;;;;5145864;27;20353;-85
2021/06/08 12:33:41;;;;;;;5.97;3.40;;;34.10;51.40;;;;;;5142531;27;20042;-85
2021/06/08 12:36:08;;;;;;;5.40;3.20;;;33.30;51.10;;;;;;5140042;27;20054;-86
2021/06/08 12:38:34;;;;;;;6.45;2.72;;;32.60;51.60;;;;;;5137671;27;20469;-86
2021/06/08 12:41:04;;;;;;;10.90;2.70;;;32.10;54.00;;;;;;5142666;27;20044;-85
2021/06/08 12:43:41;;;;;;;5.28;2.75;;;31.70;55.20;;;;;;5145205;27;20026;-84
2021/06/08 12:46:07;;;;;;;4.43;2.40;;;31.30;55.80;;;;;;5146829;27;20033;-83
2021/06/08 12:48:33;;;;;;;5.13;2.55;;;31.00;57.30;;;;;;5146675;27;20020;-84
2021/06/08 12:50:59;;;;;;;5.00;2.90;;;30.80;59.10;;;;;;5146714;27;20020;-83
2021/06/08 12:53:27;;;;;;;6.43;3.08;;;30.50;58.10;;;;;;5144043;27;20578;-84